Terminal Aerodrome Forecast
Issued by NWS

Home | Current Version | Previous Version | Graphics & Text | Print | Product List | Glossary On
Versions: 1 2 3 4 5 6 7 8 9 10 11 12 13 14 15
000
FTUS43 KMPX 131100 RRA
TAFRNH
TAF
KRNH 131141Z 1312/1412 36010KT P6SM SCT009 BKN015
      TEMPO 1312/1313 BKN009 OVC035
     FM131500 36014G21KT P6SM OVC012
     FM132000 35019G25KT P6SM SCT015 OVC035
     FM140300 35016G21KT P6SM BKN050
     FM140800 33015KT P6SM SCT050 BKN250=

USA.gov is the U.S. government's official web portal to all federal, state and local government web resources and services.